createdAt,value
2023-04-22T00:01:19.540Z,99740.16
2023-04-22T00:03:47.256Z,99742.63
2023-04-22T00:06:14.571Z,99740.06
2023-04-22T00:08:41.712Z,99738.81
2023-04-22T00:11:09.195Z,99738.62
2023-04-22T00:13:37.147Z,99740.88
2023-04-22T00:16:04.752Z,99737.47
2023-04-22T00:18:34.321Z,99740.34
2023-04-22T00:21:01.652Z,99739.63
2023-04-22T00:23:28.850Z,99740.19
2023-04-22T00:25:56.271Z,99738.78
2023-04-22T00:28:23.463Z,99741.47
2023-04-22T00:30:50.899Z,99739.59
2023-04-22T00:33:18.350Z,99740.41
2023-04-22T00:35:46.279Z,99742.84
2023-04-22T00:38:13.472Z,99741.31
2023-04-22T00:40:40.947Z,99740.97
2023-04-22T00:43:08.576Z,99736.56
2023-04-22T00:45:36.714Z,99731.28
2023-04-22T00:48:04.225Z,99734.66
2023-04-22T00:50:31.428Z,99731.72
2023-04-22T00:52:58.582Z,99732.38
2023-04-22T00:55:26.091Z,99737.72
2023-04-22T00:57:53.253Z,99736.41
2023-04-22T01:00:23.948Z,99731.44
2023-04-22T01:02:51.526Z,99733.84
2023-04-22T01:05:18.890Z,99729.75
2023-04-22T01:07:46.293Z,99738.50
2023-04-22T01:10:13.771Z,99735.75
2023-04-22T01:12:40.960Z,99741.63
2023-04-22T01:15:08.882Z,99734.16
2023-04-22T01:17:36.458Z,99733.66
2023-04-22T01:20:10.112Z,99732.84
2023-04-22T01:22:40.659Z,99738.78
2023-04-22T01:25:08.819Z,99744.00
2023-04-22T01:27:36.248Z,99748.91
2023-04-22T01:30:04.497Z,99749.00
2023-04-22T01:32:32.329Z,99746.47
2023-04-22T01:34:59.564Z,99743.47
2023-04-22T01:37:26.965Z,99756.84
2023-04-22T01:39:54.138Z,99749.59
2023-04-22T01:42:21.568Z,99754.50
2023-04-22T01:44:48.967Z,99755.16
2023-04-22T01:47:16.094Z,99758.56
2023-04-22T01:49:43.362Z,99758.16
2023-04-22T01:52:12.300Z,99750.03
2023-04-22T01:54:39.413Z,99744.03
2023-04-22T01:57:08.441Z,99754.25
2023-04-22T01:59:35.876Z,99756.25
2023-04-22T02:02:03.110Z,99745.84
2023-04-22T02:04:30.614Z,99741.87
2023-04-22T02:06:57.992Z,99742.34
2023-04-22T02:09:25.198Z,99749.53
2023-04-22T02:11:52.625Z,99750.78
2023-04-22T02:14:23.782Z,99746.97
2023-04-22T02:16:51.815Z,99744.38
2023-04-22T02:19:19.244Z,99744.16
2023-04-22T02:21:46.379Z,99745.88
2023-04-22T02:24:13.551Z,99746.50
2023-04-22T02:26:41.565Z,99747.50
2023-04-22T02:29:08.810Z,99746.69
2023-04-22T02:31:36.001Z,99754.22
2023-04-22T02:34:03.595Z,99743.00
2023-04-22T02:36:31.963Z,99748.22
2023-04-22T02:38:59.348Z,99744.03
2023-04-22T02:41:26.812Z,99748.25
2023-04-22T02:43:54.077Z,99740.53
2023-04-22T02:46:21.259Z,99740.88
2023-04-22T02:48:49.420Z,99745.00
2023-04-22T02:51:16.583Z,99742.53
2023-04-22T02:53:43.735Z,99744.25
2023-04-22T02:56:11.279Z,99749.28
2023-04-22T02:58:38.421Z,99737.31
2023-04-22T03:01:05.797Z,99739.59
2023-04-22T03:03:33.484Z,99739.16
2023-04-22T03:06:00.933Z,99747.38
2023-04-22T03:08:28.446Z,99747.59
2023-04-22T03:10:55.867Z,99745.31
2023-04-22T03:13:23.002Z,99745.50
2023-04-22T03:15:51.086Z,99749.19
2023-04-22T03:18:19.805Z,99746.06
2023-04-22T03:20:47.121Z,99741.47
2023-04-22T03:23:15.333Z,99754.59
2023-04-22T03:25:42.831Z,99751.34
2023-04-22T03:28:09.980Z,99753.88
2023-04-22T03:30:37.198Z,99755.31
2023-04-22T03:33:04.688Z,99757.81
2023-04-22T03:35:32.306Z,99754.38
2023-04-22T03:37:59.841Z,99762.88
2023-04-22T03:40:27.519Z,99759.44
2023-04-22T03:42:55.126Z,99760.72
2023-04-22T03:45:23.225Z,99765.13
2023-04-22T03:47:51.587Z,99760.78
2023-04-22T03:50:19.869Z,99760.97
2023-04-22T03:52:47.804Z,99763.19
2023-04-22T03:55:17.836Z,99766.78
2023-04-22T03:57:45.913Z,99761.69
2023-04-22T04:00:13.221Z,99769.31
2023-04-22T04:02:41.794Z,99766.66
2023-04-22T04:05:11.482Z,99767.13
2023-04-22T04:07:38.876Z,99768.91
2023-04-22T04:10:07.490Z,99768.97
2023-04-22T04:12:35.091Z,99768.47
2023-04-22T04:15:02.404Z,99769.47
2023-04-22T04:17:30.612Z,99766.81
2023-04-22T04:19:58.800Z,99762.84
2023-04-22T04:22:28.027Z,99774.94
2023-04-22T04:24:56.161Z,99768.38
2023-04-22T04:27:24.861Z,99780.19
2023-04-22T04:29:52.659Z,99782.25
2023-04-22T04:32:20.108Z,99780.75
2023-04-22T04:34:48.990Z,99780.91
2023-04-22T04:37:16.891Z,99783.25
2023-04-22T04:39:44.795Z,99786.09
2023-04-22T04:42:14.407Z,99785.50
2023-04-22T04:44:42.276Z,99789.91
2023-04-22T04:47:09.554Z,99787.94
2023-04-22T04:49:40.601Z,99793.03
2023-04-22T04:52:10.322Z,99793.03
2023-04-22T04:54:38.328Z,99797.25
2023-04-22T04:57:06.041Z,99802.34
2023-04-22T04:59:33.414Z,99804.09
2023-04-22T05:02:01.145Z,99800.91
2023-04-22T05:04:29.382Z,99805.72
2023-04-22T05:06:57.331Z,99804.63
2023-04-22T05:09:25.182Z,99800.06
2023-04-22T05:11:52.466Z,99801.66
2023-04-22T05:14:20.288Z,99804.28
2023-04-22T05:16:47.917Z,99814.19
2023-04-22T05:19:15.256Z,99799.81
2023-04-22T05:21:42.629Z,99800.97
2023-04-22T05:24:10.354Z,99805.94
2023-04-22T05:26:37.687Z,99802.50
2023-04-22T05:29:08.055Z,99802.50
2023-04-22T05:31:35.605Z,99804.50
2023-04-22T05:34:02.817Z,99806.62
2023-04-22T05:36:31.617Z,99800.22
2023-04-22T05:38:59.314Z,99804.97
2023-04-22T05:41:27.465Z,99804.88
2023-04-22T05:43:55.602Z,99814.03
2023-04-22T05:46:23.363Z,99801.06
2023-04-22T05:48:51.320Z,99808.66
2023-04-22T05:51:19.387Z,99803.87
2023-04-22T05:53:46.825Z,99804.19
2023-04-22T05:56:14.050Z,99810.41
2023-04-22T05:58:41.214Z,99805.50
2023-04-22T06:01:09.218Z,99809.63
2023-04-22T06:03:38.259Z,99804.44
2023-04-22T06:06:06.481Z,99800.12
2023-04-22T06:08:33.703Z,99813.94
2023-04-22T06:11:01.109Z,99811.37
2023-04-22T06:13:28.687Z,99806.50
2023-04-22T06:15:56.022Z,99810.16
2023-04-22T06:18:23.465Z,99811.37
2023-04-22T06:20:51.688Z,99813.75
2023-04-22T06:23:18.929Z,99818.81
2023-04-22T06:25:47.553Z,99815.06
2023-04-22T06:28:14.945Z,99827.69
2023-04-22T06:30:43.856Z,99820.63
2023-04-22T06:33:11.599Z,99824.69
2023-04-22T06:35:39.334Z,99821.00
2023-04-22T06:38:06.549Z,99811.84
2023-04-22T06:40:34.701Z,99815.00
2023-04-22T06:43:02.511Z,99820.09
2023-04-22T06:45:34.101Z,99819.44
2023-04-22T06:48:01.989Z,99814.53
2023-04-22T06:50:29.395Z,99822.88
2023-04-22T06:52:57.956Z,99826.06
2023-04-22T06:55:25.152Z,99816.34
2023-04-22T06:57:52.401Z,99812.31
2023-04-22T07:00:19.866Z,99816.44
2023-04-22T07:02:47.209Z,99814.31
2023-04-22T07:05:15.602Z,99814.62
2023-04-22T07:07:43.240Z,99816.66
2023-04-22T07:10:13.709Z,99818.63
2023-04-22T07:12:41.370Z,99817.03
2023-04-22T07:15:08.849Z,99822.22
2023-04-22T07:17:36.102Z,99815.06
2023-04-22T07:20:03.803Z,99821.22
2023-04-22T07:22:31.270Z,99818.53
2023-04-22T07:24:58.421Z,99813.88
2023-04-22T07:27:25.718Z,99824.34
2023-04-22T07:29:53.224Z,99819.47
2023-04-22T07:32:20.404Z,99815.00
2023-04-22T07:34:47.584Z,99817.22
2023-04-22T07:37:14.961Z,99805.53
2023-04-22T07:39:42.378Z,99813.09
2023-04-22T07:42:09.690Z,99805.00
2023-04-22T07:44:39.355Z,99811.47
2023-04-22T07:47:08.517Z,99801.25
2023-04-22T07:49:35.871Z,99804.00
2023-04-22T07:52:03.455Z,99805.69
2023-04-22T07:54:30.687Z,99798.28
2023-04-22T07:56:58.395Z,99801.72
2023-04-22T07:59:25.872Z,99803.19
2023-04-22T08:01:53.166Z,99803.31
2023-04-22T08:04:23.026Z,99795.31
2023-04-22T08:06:50.432Z,99798.75
2023-04-22T08:09:17.590Z,99794.81
2023-04-22T08:11:45.094Z,99801.00
2023-04-22T08:14:12.225Z,99801.53
2023-04-22T08:16:39.680Z,99797.63
2023-04-22T08:19:07.141Z,99806.31
2023-04-22T08:21:37.102Z,99803.06
2023-04-22T08:24:06.186Z,99809.81
2023-04-22T08:26:33.660Z,99803.37
2023-04-22T08:29:01.256Z,99810.44
2023-04-22T08:31:28.767Z,99800.50
2023-04-22T08:33:56.528Z,99806.69
2023-04-22T08:36:25.933Z,99812.50
2023-04-22T08:38:53.212Z,99797.81
2023-04-22T08:41:21.750Z,99806.19
2023-04-22T08:43:49.372Z,99803.34
2023-04-22T08:46:17.614Z,99809.47
2023-04-22T08:48:45.101Z,99810.37
2023-04-22T08:51:12.419Z,99807.44
2023-04-22T08:53:39.578Z,99801.06
2023-04-22T08:56:06.987Z,99796.75
2023-04-22T08:58:34.698Z,99799.06
2023-04-22T09:01:03.468Z,99798.97
2023-04-22T09:03:31.619Z,99808.53
2023-04-22T09:05:58.829Z,99797.69
2023-04-22T09:08:26.616Z,99801.47
2023-04-22T09:10:54.041Z,99803.25
2023-04-22T09:13:21.564Z,99807.22
2023-04-22T09:15:48.749Z,99805.44
2023-04-22T09:18:18.832Z,99796.41
2023-04-22T09:20:49.477Z,99803.09
2023-04-22T09:23:16.951Z,99803.75
2023-04-22T09:25:44.941Z,99802.28
2023-04-22T09:28:12.800Z,99803.19
2023-04-22T09:30:40.421Z,99798.62
2023-04-22T09:33:07.989Z,99799.66
2023-04-22T09:35:36.196Z,99801.06
2023-04-22T09:38:04.855Z,99791.69
2023-04-22T09:40:32.059Z,99789.56
2023-04-22T09:43:00.066Z,99792.56
2023-04-22T09:45:28.908Z,99792.22
2023-04-22T09:47:57.013Z,99786.19
2023-04-22T09:50:24.623Z,99782.75
2023-04-22T09:52:59.564Z,99776.34
2023-04-22T09:55:27.641Z,99777.56
2023-04-22T09:57:55.870Z,99778.03
2023-04-22T10:00:24.450Z,99770.16
2023-04-22T10:02:52.031Z,99771.84
2023-04-22T10:05:19.473Z,99757.91
2023-04-22T10:07:46.676Z,99761.84
2023-04-22T10:10:14.281Z,99748.78
2023-04-22T10:12:41.424Z,99752.06
2023-04-22T10:15:08.868Z,99748.19
2023-04-22T10:17:38.935Z,99750.50
2023-04-22T10:20:13.485Z,99752.53
2023-04-22T10:22:41.979Z,99745.06
2023-04-22T10:25:29.125Z,99749.75
2023-04-22T10:28:06.297Z,99736.94
2023-04-22T10:30:34.581Z,99736.44
2023-04-22T10:33:39.170Z,99735.97
2023-04-22T10:36:10.441Z,99734.50
2023-04-22T10:38:38.397Z,99731.84
2023-04-22T10:41:05.531Z,99732.59
2023-04-22T10:43:42.792Z,99734.94
2023-04-22T10:46:29.082Z,99738.22
2023-04-22T10:48:59.487Z,99727.66
2023-04-22T10:51:39.329Z,99728.13
2023-04-22T10:54:06.831Z,99731.06
2023-04-22T10:56:35.395Z,99737.41
2023-04-22T10:59:15.536Z,99732.25
2023-04-22T11:01:43.135Z,99731.12
2023-04-22T11:04:20.420Z,99728.31
2023-04-22T11:07:08.267Z,99727.78
2023-04-22T11:09:39.456Z,99734.91
2023-04-22T11:12:26.115Z,99732.97
2023-04-22T11:14:53.276Z,99737.22
2023-04-22T11:17:20.860Z,99735.59
2023-04-22T11:19:48.091Z,99729.34
2023-04-22T11:22:15.336Z,99728.53
2023-04-22T11:24:53.292Z,99735.56
2023-04-22T11:27:26.234Z,99725.94
2023-04-22T11:30:08.108Z,99738.16
2023-04-22T11:32:36.110Z,99727.44
2023-04-22T11:35:07.359Z,99726.63
2023-04-22T11:37:40.348Z,99732.66
2023-04-22T11:40:27.944Z,99730.94
2023-04-22T11:42:56.527Z,99733.75
2023-04-22T11:45:24.164Z,99729.41
2023-04-22T11:47:51.529Z,99731.12
2023-04-22T11:50:22.091Z,99725.91
2023-04-22T11:52:50.361Z,99724.03
2023-04-22T11:55:27.130Z,99722.06
2023-04-22T11:58:01.232Z,99722.78
2023-04-22T12:00:32.953Z,99720.94
2023-04-22T12:03:03.348Z,99710.97
2023-04-22T12:05:33.972Z,99717.97
2023-04-22T12:08:03.563Z,99710.63
2023-04-22T12:10:30.855Z,99712.25
2023-04-22T12:12:58.030Z,99708.19
2023-04-22T12:15:25.686Z,99709.81
2023-04-22T12:17:52.995Z,99711.72
2023-04-22T12:20:20.220Z,99708.25
2023-04-22T12:22:47.739Z,99709.19
2023-04-22T12:25:17.708Z,99705.72
2023-04-22T12:27:44.908Z,99703.91
2023-04-22T12:30:12.648Z,99707.28
2023-04-22T12:32:39.919Z,99707.34
2023-04-22T12:35:08.598Z,99705.72
2023-04-22T12:37:36.162Z,99702.84
2023-04-22T12:40:04.407Z,99703.94
2023-04-22T12:42:31.735Z,99702.22
2023-04-22T12:44:59.244Z,99695.97
2023-04-22T12:47:26.425Z,99693.25
2023-04-22T12:49:53.588Z,99690.56
2023-04-22T12:52:21.300Z,99690.38
2023-04-22T12:54:49.199Z,99690.38
2023-04-22T12:57:16.383Z,99678.53
2023-04-22T12:59:45.343Z,99680.41
2023-04-22T13:02:12.715Z,99676.66
2023-04-22T13:04:40.109Z,99685.25
2023-04-22T13:07:07.561Z,99678.16
2023-04-22T13:09:34.690Z,99674.56
2023-04-22T13:12:03.390Z,99667.81
2023-04-22T13:14:30.894Z,99662.03
2023-04-22T13:16:58.084Z,99666.53
2023-04-22T13:19:27.019Z,99660.16
2023-04-22T13:21:54.695Z,99662.81
2023-04-22T13:24:22.305Z,99666.28
2023-04-22T13:26:49.495Z,99664.63
2023-04-22T13:29:16.990Z,99667.19
2023-04-22T13:31:44.801Z,99664.69
2023-04-22T13:34:12.131Z,99660.38
2023-04-22T13:36:39.651Z,99659.34
2023-04-22T13:39:07.194Z,99651.63
2023-04-22T13:41:34.657Z,99657.53
2023-04-22T13:44:03.908Z,99654.94
2023-04-22T13:46:31.087Z,99654.53
2023-04-22T13:48:58.680Z,99655.38
2023-04-22T13:51:26.149Z,99652.28
2023-04-22T13:53:53.324Z,99646.81
2023-04-22T13:56:20.500Z,99643.37
2023-04-22T13:58:48.011Z,99644.53
2023-04-22T14:01:15.192Z,99646.53
2023-04-22T14:03:42.747Z,99641.31
2023-04-22T14:06:09.951Z,99638.16
2023-04-22T14:08:37.602Z,99639.59
2023-04-22T14:11:06.417Z,99639.38
2023-04-22T14:13:33.550Z,99641.22
2023-04-22T14:16:01.222Z,99631.84
2023-04-22T14:18:28.924Z,99642.37
2023-04-22T14:20:56.916Z,99634.00
2023-04-22T14:23:24.377Z,99631.22
2023-04-22T14:25:51.900Z,99634.13
2023-04-22T14:28:19.051Z,99638.16
2023-04-22T14:30:46.195Z,99630.22
2023-04-22T14:33:13.705Z,99634.66
2023-04-22T14:35:40.966Z,99629.56
2023-04-22T14:38:10.078Z,99629.56
2023-04-22T14:40:37.912Z,99622.09
2023-04-22T14:43:05.705Z,99622.78
2023-04-22T14:45:33.229Z,99628.22
2023-04-22T14:48:00.900Z,99625.25
2023-04-22T14:50:28.183Z,99623.56
2023-04-22T14:52:55.523Z,99624.03
2023-04-22T14:55:24.167Z,99622.31
2023-04-22T14:57:57.846Z,99622.72
2023-04-22T15:00:25.630Z,99615.97
2023-04-22T15:02:54.159Z,99611.75
2023-04-22T15:05:23.481Z,99611.78
2023-04-22T15:07:51.341Z,99613.09
2023-04-22T15:10:18.574Z,99612.69
2023-04-22T15:12:45.988Z,99613.06
2023-04-22T15:15:15.786Z,99612.94
2023-04-22T15:17:43.681Z,99614.91
2023-04-22T15:20:11.248Z,99609.66
2023-04-22T15:22:40.926Z,99612.16
2023-04-22T15:25:10.473Z,99615.97
2023-04-22T15:27:38.006Z,99616.03
2023-04-22T15:30:06.026Z,99615.91
2023-04-22T15:32:33.254Z,99617.59
2023-04-22T15:35:00.945Z,99620.37
2023-04-22T15:37:28.519Z,99611.41
2023-04-22T15:39:55.735Z,99622.69
2023-04-22T15:42:22.968Z,99609.56
2023-04-22T15:44:50.517Z,99610.94
2023-04-22T15:47:18.220Z,99614.19
2023-04-22T15:49:45.468Z,99614.59
2023-04-22T15:52:12.986Z,99612.63
2023-04-22T15:54:40.237Z,99615.13
2023-04-22T15:57:07.438Z,99621.22
2023-04-22T15:59:34.912Z,99608.47
2023-04-22T16:02:02.172Z,99611.06
2023-04-22T16:04:29.763Z,99621.94
2023-04-22T16:06:59.919Z,99614.03
2023-04-22T16:09:27.104Z,99614.16
2023-04-22T16:11:56.019Z,99606.41
2023-04-22T16:14:23.225Z,99616.09
2023-04-22T16:16:50.478Z,99608.09
2023-04-22T16:19:20.641Z,99614.13
2023-04-22T16:21:47.890Z,99608.12
2023-04-22T16:24:15.056Z,99602.00
2023-04-22T16:26:43.109Z,99600.28
2023-04-22T16:29:10.338Z,99606.50
2023-04-22T16:31:38.713Z,99597.69
2023-04-22T16:34:06.424Z,99603.78
2023-04-22T16:36:35.007Z,99606.38
2023-04-22T16:39:02.895Z,99598.50
2023-04-22T16:41:31.187Z,99603.81
2023-04-22T16:43:58.439Z,99600.06
2023-04-22T16:46:25.748Z,99600.09
2023-04-22T16:48:53.552Z,99596.81
2023-04-22T16:51:20.994Z,99598.50
2023-04-22T16:53:48.163Z,99597.66
2023-04-22T16:56:15.603Z,99601.28
2023-04-22T16:58:42.905Z,99598.63
2023-04-22T17:01:10.139Z,99599.53
2023-04-22T17:03:37.911Z,99602.13
2023-04-22T17:06:05.270Z,99606.53
2023-04-22T17:08:32.442Z,99606.47
2023-04-22T17:10:59.826Z,99603.84
2023-04-22T17:13:27.201Z,99605.59
2023-04-22T17:15:54.544Z,99609.03
2023-04-22T17:18:22.129Z,99605.50
2023-04-22T17:20:49.365Z,99602.84
2023-04-22T17:23:16.861Z,99607.25
2023-04-22T17:25:46.911Z,99606.38
2023-04-22T17:28:14.164Z,99602.88
2023-04-22T17:30:41.417Z,99607.25
2023-04-22T17:33:08.934Z,99610.78
2023-04-22T17:35:36.105Z,99600.25
2023-04-22T17:38:03.458Z,99610.78
2023-04-22T17:40:31.298Z,99610.66
2023-04-22T17:42:59.337Z,99612.47
2023-04-22T17:45:26.740Z,99613.47
2023-04-22T17:47:54.224Z,99608.22
2023-04-22T17:50:23.243Z,99609.97
2023-04-22T17:52:50.465Z,99617.78
2023-04-22T17:55:18.047Z,99619.56
2023-04-22T17:57:45.846Z,99621.25
2023-04-22T18:00:14.595Z,99628.28
2023-04-22T18:02:42.264Z,99626.41
2023-04-22T18:05:09.692Z,99628.91
2023-04-22T18:07:36.857Z,99636.13
2023-04-22T18:10:04.795Z,99637.72
2023-04-22T18:12:31.974Z,99640.97
2023-04-22T18:14:59.595Z,99649.63
2023-04-22T18:17:27.539Z,99651.91
2023-04-22T18:20:06.331Z,99662.31
2023-04-22T18:22:46.983Z,99659.53
2023-04-22T18:25:15.141Z,99660.34
2023-04-22T18:27:43.047Z,99669.19
2023-04-22T18:30:10.381Z,99672.75
2023-04-22T18:32:38.151Z,99660.81
2023-04-22T18:35:06.098Z,99665.25
2023-04-22T18:37:34.689Z,99666.22
2023-04-22T18:40:02.717Z,99674.19
2023-04-22T18:42:30.275Z,99669.62
2023-04-22T18:44:57.477Z,99667.78
2023-04-22T18:47:24.704Z,99672.81
2023-04-22T18:49:52.479Z,99672.13
2023-04-22T18:52:19.663Z,99673.22
2023-04-22T18:54:46.914Z,99678.09
2023-04-22T18:57:14.581Z,99680.87
2023-04-22T18:59:44.930Z,99674.31
2023-04-22T19:02:13.078Z,99676.69
2023-04-22T19:04:41.494Z,99676.69
2023-04-22T19:07:09.043Z,99684.50
2023-04-22T19:09:36.252Z,99683.13
2023-04-22T19:12:03.843Z,99689.81
2023-04-22T19:14:31.466Z,99689.88
2023-04-22T19:16:59.184Z,99685.12
2023-04-22T19:19:28.122Z,99689.28
2023-04-22T19:21:55.886Z,99695.22
2023-04-22T19:24:23.337Z,99692.84
2023-04-22T19:26:51.515Z,99695.34
2023-04-22T19:29:19.028Z,99697.38
2023-04-22T19:31:46.615Z,99688.25
2023-04-22T19:34:14.647Z,99688.81
2023-04-22T19:36:41.979Z,99699.38
2023-04-22T19:39:09.585Z,99699.84
2023-04-22T19:41:38.145Z,99691.78
2023-04-22T19:44:05.806Z,99703.13
2023-04-22T19:46:33.100Z,99709.47
2023-04-22T19:49:01.068Z,99698.47
2023-04-22T19:51:29.220Z,99696.09
2023-04-22T19:53:59.984Z,99691.97
2023-04-22T19:56:28.605Z,99692.56
2023-04-22T19:58:56.576Z,99693.16
2023-04-22T20:01:24.008Z,99697.34
2023-04-22T20:03:53.801Z,99698.06
2023-04-22T20:06:22.832Z,99705.69
2023-04-22T20:08:54.021Z,99694.88
2023-04-22T20:11:23.265Z,99701.66
2023-04-22T20:13:51.071Z,99702.25
2023-04-22T20:16:19.454Z,99696.94
2023-04-22T20:18:47.367Z,99702.47
2023-04-22T20:21:14.771Z,99700.62
2023-04-22T20:23:42.507Z,99698.72
2023-04-22T20:26:10.429Z,99702.38
2023-04-22T20:28:48.782Z,99705.00
2023-04-22T20:31:18.642Z,99705.00
2023-04-22T20:33:46.639Z,99707.78
2023-04-22T20:36:15.302Z,99709.00
2023-04-22T20:38:48.896Z,99705.31
2023-04-22T20:41:18.922Z,99698.47
2023-04-22T20:43:47.255Z,99701.94
2023-04-22T20:46:14.614Z,99704.91
2023-04-22T20:48:42.631Z,99693.84
2023-04-22T20:51:10.317Z,99703.63
2023-04-22T20:53:38.189Z,99701.31
2023-04-22T20:56:07.464Z,99700.34
2023-04-22T20:58:35.056Z,99700.09
2023-04-22T21:01:02.352Z,99709.28
2023-04-22T21:03:29.595Z,99707.09
2023-04-22T21:05:58.473Z,99701.06
2023-04-22T21:08:26.427Z,99708.38
2023-04-22T21:10:55.550Z,99702.47
2023-04-22T21:13:23.773Z,99702.28
2023-04-22T21:15:55.478Z,99705.69
2023-04-22T21:18:24.174Z,99702.25
2023-04-22T21:20:51.678Z,99697.00
2023-04-22T21:23:20.516Z,99698.66
2023-04-22T21:25:48.644Z,99705.75
2023-04-22T21:28:17.126Z,99706.94
2023-04-22T21:30:44.862Z,99700.78
2023-04-22T21:33:13.412Z,99699.59
2023-04-22T21:35:40.924Z,99695.09
2023-04-22T21:38:09.095Z,99692.25
2023-04-22T21:40:36.904Z,99705.31
2023-04-22T21:43:07.469Z,99706.72
2023-04-22T21:45:35.116Z,99704.31
2023-04-22T21:48:04.511Z,99702.78
2023-04-22T21:50:32.481Z,99705.66
2023-04-22T21:53:00.546Z,99708.81
2023-04-22T21:55:29.529Z,99702.56
2023-04-22T21:57:56.986Z,99701.03
2023-04-22T22:00:25.439Z,99709.97
2023-04-22T22:02:53.600Z,99714.84
2023-04-22T22:05:21.182Z,99712.47
2023-04-22T22:07:49.090Z,99709.03
2023-04-22T22:10:23.194Z,99710.63
2023-04-22T22:12:50.912Z,99711.94
2023-04-22T22:15:19.041Z,99715.38
2023-04-22T22:17:46.837Z,99706.13
2023-04-22T22:20:20.749Z,99718.69
2023-04-22T22:22:49.777Z,99724.50
2023-04-22T22:25:17.356Z,99714.88
2023-04-22T22:27:49.199Z,99723.25
2023-04-22T22:30:18.830Z,99718.78
2023-04-22T22:32:46.690Z,99714.84
2023-04-22T22:35:14.725Z,99720.31
2023-04-22T22:37:43.106Z,99719.75
2023-04-22T22:40:11.590Z,99721.06
2023-04-22T22:42:39.086Z,99724.66
2023-04-22T22:45:07.307Z,99725.00
2023-04-22T22:47:35.434Z,99715.06
2023-04-22T22:50:03.133Z,99725.63
2023-04-22T22:52:32.044Z,99724.75
2023-04-22T22:54:59.418Z,99721.72
2023-04-22T22:57:26.836Z,99719.44
2023-04-22T22:59:54.477Z,99727.47
2023-04-22T23:02:21.961Z,99716.53
2023-04-22T23:04:49.515Z,99731.22
2023-04-22T23:07:17.728Z,99723.81
2023-04-22T23:09:45.256Z,99729.06
2023-04-22T23:12:12.653Z,99726.63
2023-04-22T23:14:40.703Z,99729.59
2023-04-22T23:17:08.423Z,99727.16
2023-04-22T23:19:36.328Z,99729.06
2023-04-22T23:22:06.712Z,99732.75
2023-04-22T23:24:34.398Z,99729.28
2023-04-22T23:27:02.184Z,99740.06
2023-04-22T23:29:30.886Z,99728.94
2023-04-22T23:32:00.898Z,99724.88
2023-04-22T23:34:31.566Z,99729.78
2023-04-22T23:36:59.349Z,99734.16
2023-04-22T23:39:26.742Z,99732.09
2023-04-22T23:41:54.164Z,99728.78
2023-04-22T23:44:21.816Z,99726.78
2023-04-22T23:46:49.697Z,99731.78
2023-04-22T23:49:17.119Z,99725.44
2023-04-22T23:51:44.769Z,99727.28
2023-04-22T23:54:12.470Z,99729.16
2023-04-22T23:56:40.962Z,99729.69
2023-04-22T23:59:08.769Z,99733.03
